Time,TemperatureF,DewpointF,PressureIn,WindDirection,WindDirectionDegrees,WindSpeedMPH,WindSpeedGustMPH,Humidity,HourlyPrecipIn,Conditions,Clouds,dailyrainin,SoftwareType,DateUTC
2013-01-24 00:03:00,18.0,16.0,30.11,North,5,2.0,5.0,90,0.00,,,0.00,,2013-01-24 05:03:00,
2013-01-24 00:12:00,18.0,16.0,30.11,North,5,2.0,5.0,90,0.00,,,0.00,,2013-01-24 05:12:00,
2013-01-24 00:22:00,18.0,15.0,30.12,North,350,3.0,10.0,88,0.00,,,0.00,,2013-01-24 05:22:00,
2013-01-24 00:33:00,17.0,12.0,30.14,NNE,32,2.0,7.0,82,0.00,,,0.00,,2013-01-24 05:33:00,
2013-01-24 00:43:00,17.0,12.0,30.14,NNE,32,2.0,7.0,82,0.00,,,0.00,,2013-01-24 05:43:00,
2013-01-24 00:52:00,17.0,12.0,30.15,NW,322,2.0,8.0,80,0.00,,,0.00,,2013-01-24 05:52:00,
2013-01-24 01:03:00,16.0,13.0,30.17,North,350,1.0,3.0,86,0.00,,,0.00,,2013-01-24 06:03:00,
2013-01-24 01:12:00,16.0,13.0,30.17,North,350,1.0,3.0,86,0.00,,,0.00,,2013-01-24 06:12:00,
2013-01-24 01:22:00,16.0,13.0,30.17,North,9,1.0,4.0,87,0.00,,,0.00,,2013-01-24 06:22:00,
2013-01-24 01:32:00,15.0,12.0,30.18,NE,51,2.0,5.0,86,0.00,,,0.00,,2013-01-24 06:32:00,
2013-01-24 01:42:00,15.0,12.0,30.18,NE,51,2.0,5.0,86,0.00,,,0.00,,2013-01-24 06:42:00,
2013-01-24 01:52:00,15.0,11.0,30.20,NW,317,1.0,7.0,82,0.00,,,0.00,,2013-01-24 06:52:00,
2013-01-24 02:03:00,14.0,10.0,30.22,NNW,328,0.0,2.0,82,0.00,,,0.00,,2013-01-24 07:03:00,
2013-01-24 02:12:00,14.0,10.0,30.22,NNW,328,0.0,2.0,82,0.00,,,0.00,,2013-01-24 07:12:00,
2013-01-24 02:23:00,13.0,9.0,30.22,North,355,2.0,3.0,82,0.00,,,0.00,,2013-01-24 07:23:00,
2013-01-24 02:33:00,13.0,8.0,30.24,NNW,348,0.0,4.0,81,0.00,,,0.00,,2013-01-24 07:33:00,
2013-01-24 02:43:00,13.0,8.0,30.24,NNW,348,0.0,4.0,81,0.00,,,0.00,,2013-01-24 07:43:00,
2013-01-24 02:52:00,13.0,8.0,30.24,North,360,1.0,3.0,80,0.00,,,0.00,,2013-01-24 07:52:00,
2013-01-24 03:02:00,13.0,8.0,30.26,North,355,1.0,4.0,80,0.00,,,0.00,,2013-01-24 08:02:00,
2013-01-24 03:12:00,13.0,8.0,30.26,North,355,1.0,4.0,80,0.00,,,0.00,,2013-01-24 08:12:00,
2013-01-24 03:23:00,12.0,7.0,30.27,NNW,331,1.0,3.0,80,0.00,,,0.00,,2013-01-24 08:23:00,
2013-01-24 03:33:00,12.0,7.0,30.28,NNW,342,0.0,2.0,80,0.00,,,0.00,,2013-01-24 08:33:00,
2013-01-24 03:43:00,12.0,7.0,30.28,NNW,342,0.0,2.0,80,0.00,,,0.00,,2013-01-24 08:43:00,
2013-01-24 03:53:00,11.0,6.0,30.29,North,350,1.0,2.0,81,0.00,,,0.00,,2013-01-24 08:53:00,
2013-01-24 04:03:00,11.0,6.0,30.30,NNW,345,1.0,2.0,81,0.00,,,0.00,,2013-01-24 09:03:00,
2013-01-24 04:13:00,11.0,6.0,30.30,NNW,345,1.0,2.0,81,0.00,,,0.00,,2013-01-24 09:13:00,
2013-01-24 04:23:00,10.0,6.0,30.31,NNW,345,0.0,1.0,82,0.00,,,0.00,,2013-01-24 09:23:00,
2013-01-24 04:33:00,9.0,5.0,30.32,NNW,345,0.0,0.0,82,0.00,,,0.00,,2013-01-24 09:33:00,
2013-01-24 04:43:00,9.0,5.0,30.32,NNW,345,0.0,0.0,82,0.00,,,0.00,,2013-01-24 09:43:00,
2013-01-24 04:53:00,9.0,5.0,30.32,NNW,345,0.0,0.0,85,0.00,,,0.00,,2013-01-24 09:53:00,
2013-01-24 05:03:00,8.0,4.0,30.33,NNW,345,0.0,1.0,85,0.00,,,0.00,,2013-01-24 10:03:00,
2013-01-24 05:12:00,8.0,4.0,30.33,NNW,345,0.0,1.0,85,0.00,,,0.00,,2013-01-24 10:12:00,
2013-01-24 05:23:00,8.0,5.0,30.33,NNW,345,0.0,1.0,86,0.00,,,0.00,,2013-01-24 10:23:00,
2013-01-24 05:33:00,7.0,3.0,30.34,NNW,344,0.0,1.0,85,0.00,,,0.00,,2013-01-24 10:33:00,
2013-01-24 05:43:00,7.0,3.0,30.34,NNW,344,0.0,1.0,85,0.00,,,0.00,,2013-01-24 10:43:00,
2013-01-24 05:52:00,7.0,4.0,30.35,NW,319,0.0,2.0,87,0.00,,,0.00,,2013-01-24 10:52:00,
2013-01-24 06:03:00,6.0,3.0,30.37,NW,319,0.0,0.0,88,0.00,,,0.00,,2013-01-24 11:03:00,
2013-01-24 06:12:00,6.0,3.0,30.37,NW,319,0.0,0.0,88,0.00,,,0.00,,2013-01-24 11:12:00,
2013-01-24 06:23:00,6.0,3.0,30.38,NW,319,0.0,0.0,88,0.00,,,0.00,,2013-01-24 11:23:00,
2013-01-24 06:33:00,6.0,3.0,30.38,NW,319,0.0,1.0,86,0.00,,,0.00,,2013-01-24 11:33:00,
2013-01-24 06:43:00,6.0,3.0,30.38,NW,319,0.0,1.0,86,0.00,,,0.00,,2013-01-24 11:43:00,
2013-01-24 06:53:00,5.0,2.0,30.39,NW,319,0.0,1.0,86,0.00,,,0.00,,2013-01-24 11:53:00,
2013-01-24 07:03:00,5.0,2.0,30.41,NW,319,0.0,1.0,89,0.00,,,0.00,,2013-01-24 12:03:00,
2013-01-24 07:12:00,5.0,2.0,30.41,NW,319,0.0,1.0,89,0.00,,,0.00,,2013-01-24 12:12:00,
2013-01-24 07:23:00,6.0,3.0,30.42,WNW,296,0.0,1.0,88,0.00,,,0.00,,2013-01-24 12:23:00,
2013-01-24 07:33:00,6.0,3.0,30.43,WNW,296,0.0,0.0,88,0.00,,,0.00,,2013-01-24 12:33:00,
2013-01-24 07:43:00,6.0,3.0,30.43,WNW,296,0.0,0.0,88,0.00,,,0.00,,2013-01-24 12:43:00,
2013-01-24 07:53:00,5.0,2.0,30.45,WNW,296,0.0,0.0,86,0.00,,,0.00,,2013-01-24 12:53:00,
2013-01-24 08:03:00,5.0,2.0,30.46,WNW,296,0.0,0.0,86,0.00,,,0.00,,2013-01-24 13:03:00,
2013-01-24 08:13:00,5.0,2.0,30.46,WNW,296,0.0,0.0,86,0.00,,,0.00,,2013-01-24 13:13:00,
2013-01-24 08:23:00,4.0,1.0,30.46,WNW,296,0.0,0.0,86,0.00,,,0.00,,2013-01-24 13:23:00,
2013-01-24 08:33:00,4.0,1.0,30.47,WNW,296,0.0,0.0,88,0.00,,,0.00,,2013-01-24 13:33:00,
2013-01-24 08:43:00,4.0,1.0,30.47,WNW,296,0.0,0.0,88,0.00,,,0.00,,2013-01-24 13:43:00,
2013-01-24 08:53:00,5.0,2.0,30.47,WNW,296,0.0,0.0,88,0.00,,,0.00,,2013-01-24 13:53:00,
2013-01-24 09:03:00,6.0,4.0,30.48,WNW,296,0.0,0.0,90,0.00,,,0.00,,2013-01-24 14:03:00,
2013-01-24 09:12:00,6.0,4.0,30.48,WNW,296,0.0,0.0,90,0.00,,,0.00,,2013-01-24 14:12:00,
2013-01-24 09:23:00,7.0,5.0,30.49,WNW,301,0.0,1.0,91,0.00,,,0.00,,2013-01-24 14:23:00,
2013-01-24 09:33:00,8.0,6.0,30.49,NW,324,0.0,1.0,90,0.00,,,0.00,,2013-01-24 14:33:00,
2013-01-24 09:43:00,8.0,6.0,30.49,NW,324,0.0,1.0,90,0.00,,,0.00,,2013-01-24 14:43:00,
2013-01-24 09:53:00,10.0,7.0,30.51,North,355,1.0,3.0,87,0.00,,,0.00,,2013-01-24 14:53:00,
2013-01-24 10:04:00,12.0,8.0,30.53,NE,38,1.0,2.0,83,0.00,,,0.00,,2013-01-24 15:04:00,
2013-01-24 10:13:00,12.0,8.0,30.53,NE,38,1.0,2.0,83,0.00,,,0.00,,2013-01-24 15:13:00,
2013-01-24 10:23:00,14.0,9.0,30.53,North,5,1.0,3.0,81,0.00,,,0.00,,2013-01-24 15:23:00,
2013-01-24 10:33:00,14.0,9.0,30.53,North,5,1.0,3.0,81,0.00,,,0.00,,2013-01-24 15:33:00,
2013-01-24 10:43:00,15.0,9.0,30.55,North,360,2.0,5.0,75,0.00,,,0.00,,2013-01-24 15:43:00,
2013-01-24 10:53:00,16.0,9.0,30.55,ENE,60,2.0,5.0,72,0.00,,,0.00,,2013-01-24 15:53:00,
2013-01-24 11:03:00,16.0,9.0,30.57,ENE,65,2.0,4.0,73,0.00,,,0.00,,2013-01-24 16:03:00,
2013-01-24 11:12:00,16.0,9.0,30.57,ENE,65,2.0,4.0,73,0.00,,,0.00,,2013-01-24 16:12:00,
2013-01-24 11:23:00,16.0,8.0,30.57,NE,51,1.0,5.0,71,0.00,,,0.00,,2013-01-24 16:23:00,
2013-01-24 11:33:00,16.0,8.0,30.57,East,79,3.0,7.0,70,0.00,,,0.00,,2013-01-24 16:33:00,
2013-01-24 11:43:00,16.0,8.0,30.57,East,79,3.0,7.0,70,0.00,,,0.00,,2013-01-24 16:43:00,
2013-01-24 12:03:00,17.0,10.0,30.57,East,91,3.0,5.0,72,0.00,,,0.00,,2013-01-24 17:03:00,
2013-01-24 12:12:00,17.0,10.0,30.57,East,91,3.0,5.0,72,0.00,,,0.00,,2013-01-24 17:12:00,
2013-01-24 12:22:00,18.0,10.0,30.58,ENE,78,2.0,4.0,70,0.00,,,0.00,,2013-01-24 17:22:00,
2013-01-24 12:32:00,19.0,11.0,30.57,East,88,2.0,5.0,72,0.00,,,0.00,,2013-01-24 17:32:00,
2013-01-24 12:42:00,19.0,11.0,30.57,East,88,2.0,5.0,72,0.00,,,0.00,,2013-01-24 17:42:00,
2013-01-24 12:52:00,19.0,11.0,30.56,East,92,5.0,9.0,69,0.00,,,0.00,,2013-01-24 17:52:00,
2013-01-24 13:03:00,20.0,11.0,30.55,East,92,2.0,5.0,68,0.00,,,0.00,,2013-01-24 18:03:00,
2013-01-24 13:12:00,20.0,11.0,30.54,ENE,70,1.0,5.0,69,0.00,,,0.00,,2013-01-24 18:12:00,
2013-01-24 13:22:00,20.0,11.0,30.54,ENE,70,1.0,5.0,69,0.00,,,0.00,,2013-01-24 18:22:00,
2013-01-24 13:33:00,20.0,9.0,30.54,ESE,119,2.0,5.0,63,0.00,,,0.00,,2013-01-24 18:33:00,
2013-01-24 13:42:00,20.0,9.0,30.54,ESE,119,2.0,5.0,63,0.00,,,0.00,,2013-01-24 18:42:00,
2013-01-24 14:02:00,20.0,9.0,30.54,ESE,109,4.0,7.0,63,0.00,,,0.00,,2013-01-24 19:02:00,
2013-01-24 14:12:00,20.0,9.0,30.54,ESE,109,4.0,7.0,63,0.00,,,0.00,,2013-01-24 19:12:00,
2013-01-24 14:22:00,20.0,9.0,30.53,ESE,108,2.0,5.0,61,0.00,,,0.00,,2013-01-24 19:22:00,
2013-01-24 14:33:00,20.0,7.0,30.53,ESE,114,3.0,7.0,56,0.01,,,0.01,,2013-01-24 19:33:00,
2013-01-24 14:42:00,20.0,7.0,30.53,ESE,114,3.0,7.0,56,0.01,,,0.01,,2013-01-24 19:42:00,
2013-01-24 14:52:00,20.0,8.0,30.53,East,90,3.0,6.0,60,0.01,,,0.01,,2013-01-24 19:52:00,
2013-01-24 15:02:00,20.0,7.0,30.52,ESE,102,4.0,7.0,56,0.01,,,0.01,,2013-01-24 20:02:00,
2013-01-24 15:12:00,20.0,7.0,30.52,ESE,102,4.0,7.0,56,0.01,,,0.01,,2013-01-24 20:12:00,
2013-01-24 15:22:00,20.0,7.0,30.52,ESE,109,4.0,7.0,57,0.01,,,0.01,,2013-01-24 20:22:00,
2013-01-24 15:33:00,20.0,7.0,30.52,East,88,2.0,5.0,57,0.00,,,0.01,,2013-01-24 20:33:00,
2013-01-24 15:42:00,20.0,7.0,30.52,East,88,2.0,5.0,57,0.00,,,0.01,,2013-01-24 20:42:00,
2013-01-24 15:52:00,20.0,6.0,30.52,ESE,111,1.0,4.0,55,0.00,,,0.01,,2013-01-24 20:52:00,
2013-01-24 16:03:00,20.0,6.0,30.51,East,96,4.0,6.0,53,0.00,,,0.01,,2013-01-24 21:03:00,
2013-01-24 16:12:00,20.0,6.0,30.51,East,96,4.0,6.0,53,0.00,,,0.01,,2013-01-24 21:12:00,
2013-01-24 16:23:00,20.0,4.0,30.52,East,94,4.0,7.0,49,0.00,,,0.01,,2013-01-24 21:23:00,
2013-01-24 16:33:00,19.0,3.0,30.52,East,97,5.0,8.0,48,0.00,,,0.01,,2013-01-24 21:33:00,
2013-01-24 16:43:00,19.0,3.0,30.52,East,97,5.0,8.0,48,0.00,,,0.01,,2013-01-24 21:43:00,
2013-01-24 16:52:00,19.0,3.0,30.52,East,97,1.0,5.0,49,0.00,,,0.01,,2013-01-24 21:52:00,
2013-01-24 17:03:00,19.0,4.0,30.51,East,95,1.0,5.0,51,0.00,,,0.01,,2013-01-24 22:03:00,
2013-01-24 17:12:00,19.0,4.0,30.51,East,95,1.0,5.0,51,0.00,,,0.01,,2013-01-24 22:12:00,
2013-01-24 17:22:00,19.0,5.0,30.51,East,95,1.0,2.0,54,0.00,,,0.01,,2013-01-24 22:22:00,
2013-01-24 17:33:00,19.0,7.0,30.52,ENE,76,0.0,1.0,58,0.00,,,0.01,,2013-01-24 22:33:00,
2013-01-24 17:42:00,19.0,7.0,30.52,ENE,76,0.0,1.0,58,0.00,,,0.01,,2013-01-24 22:42:00,
2013-01-24 17:52:00,19.0,7.0,30.52,ENE,76,0.0,2.0,59,0.00,,,0.01,,2013-01-24 22:52:00,
2013-01-24 18:03:00,18.0,6.0,30.51,ENE,74,0.0,1.0,60,0.00,,,0.01,,2013-01-24 23:03:00,
2013-01-24 18:12:00,18.0,6.0,30.51,ENE,74,0.0,1.0,60,0.00,,,0.01,,2013-01-24 23:12:00,
2013-01-24 18:22:00,18.0,8.0,30.51,ENE,74,0.0,1.0,64,0.00,,,0.01,,2013-01-24 23:22:00,
2013-01-24 18:32:00,18.0,8.0,30.51,ENE,74,0.0,1.0,64,0.00,,,0.01,,2013-01-24 23:32:00,
2013-01-24 18:42:00,18.0,8.0,30.51,ENE,74,0.0,1.0,64,0.00,,,0.01,,2013-01-24 23:42:00,
2013-01-24 18:52:00,17.0,8.0,30.50,ENE,70,0.0,2.0,68,0.00,,,0.01,,2013-01-24 23:52:00,
2013-01-24 19:02:00,17.0,8.0,30.49,ENE,73,1.0,3.0,66,0.00,,,0.01,,2013-01-25 00:02:00,
2013-01-24 19:12:00,17.0,8.0,30.49,ENE,73,1.0,3.0,66,0.00,,,0.01,,2013-01-25 00:12:00,
2013-01-24 19:22:00,17.0,7.0,30.49,ENE,73,1.0,3.0,65,0.00,,,0.01,,2013-01-25 00:22:00,
2013-01-24 19:32:00,17.0,8.0,30.50,East,88,1.0,3.0,66,0.00,,,0.01,,2013-01-25 00:32:00,
2013-01-24 19:42:00,17.0,8.0,30.50,East,88,1.0,3.0,66,0.00,,,0.01,,2013-01-25 00:42:00,
2013-01-24 19:52:00,17.0,8.0,30.50,East,88,1.0,2.0,66,0.00,,,0.01,,2013-01-25 00:52:00,
2013-01-24 20:02:00,17.0,7.0,30.49,East,89,1.0,3.0,65,0.00,,,0.01,,2013-01-25 01:02:00,
2013-01-24 20:12:00,17.0,7.0,30.49,East,89,1.0,3.0,65,0.00,,,0.01,,2013-01-25 01:12:00,
2013-01-24 20:22:00,17.0,7.0,30.48,East,96,3.0,5.0,64,0.00,,,0.01,,2013-01-25 01:22:00,
2013-01-24 20:32:00,17.0,7.0,30.47,East,85,4.0,6.0,65,0.00,,,0.01,,2013-01-25 01:32:00,
2013-01-24 20:42:00,17.0,7.0,30.47,East,85,4.0,6.0,65,0.00,,,0.01,,2013-01-25 01:42:00,
2013-01-24 20:52:00,17.0,7.0,30.47,East,80,2.0,7.0,63,0.00,,,0.01,,2013-01-25 01:52:00,
2013-01-24 21:02:00,17.0,7.0,30.46,East,85,2.0,7.0,64,0.00,,,0.01,,2013-01-25 02:02:00,
2013-01-24 21:12:00,17.0,7.0,30.46,East,85,2.0,7.0,64,0.00,,,0.01,,2013-01-25 02:12:00,
2013-01-24 21:22:00,17.0,7.0,30.45,East,97,3.0,8.0,63,0.00,,,0.01,,2013-01-25 02:22:00,
2013-01-24 21:32:00,17.0,6.0,30.45,East,94,4.0,9.0,61,0.00,,,0.01,,2013-01-25 02:32:00,
2013-01-24 21:42:00,17.0,6.0,30.45,East,94,4.0,9.0,61,0.00,,,0.01,,2013-01-25 02:42:00,
2013-01-24 21:53:00,17.0,5.0,30.46,East,88,3.0,7.0,59,0.00,,,0.01,,2013-01-25 02:53:00,
2013-01-24 22:02:00,17.0,5.0,30.46,East,88,3.0,7.0,59,0.00,,,0.01,,2013-01-25 03:02:00,
2013-01-24 22:12:00,17.0,6.0,30.44,East,87,5.0,8.0,60,0.00,,,0.01,,2013-01-25 03:12:00,
2013-01-24 22:22:00,17.0,6.0,30.44,East,87,5.0,8.0,60,0.00,,,0.01,,2013-01-25 03:22:00,
2013-01-24 22:33:00,17.0,6.0,30.43,East,94,7.0,10.0,61,0.00,,,0.01,,2013-01-25 03:33:00,
2013-01-24 22:42:00,17.0,6.0,30.43,East,94,7.0,10.0,61,0.00,,,0.01,,2013-01-25 03:42:00,
2013-01-24 22:52:00,18.0,8.0,30.42,East,91,6.0,13.0,63,0.00,,,0.01,,2013-01-25 03:52:00,
2013-01-24 23:02:00,18.0,8.0,30.42,ESE,122,4.0,14.0,63,0.00,,,0.01,,2013-01-25 04:02:00,
2013-01-24 23:12:00,18.0,8.0,30.42,ESE,122,4.0,14.0,63,0.00,,,0.01,,2013-01-25 04:12:00,
2013-01-24 23:22:00,18.0,8.0,30.42,East,101,5.0,9.0,64,0.00,,,0.01,,2013-01-25 04:22:00,
2013-01-24 23:32:00,18.0,8.0,30.42,East,98,5.0,8.0,64,0.00,,,0.01,,2013-01-25 04:32:00,
2013-01-24 23:42:00,18.0,8.0,30.42,East,98,5.0,8.0,64,0.00,,,0.01,,2013-01-25 04:42:00,
2013-01-24 23:52:00,18.0,8.0,30.43,East,85,3.0,7.0,65,0.00,,,0.01,,2013-01-25 04:52:00,